»·PEaware :: CFS419 KYKM-KGEG

CFS419 :: KYKM-KGEG

FLIGHT INFORMATION

Flight Status: Arrived
Operator: Unknown
More flights by this operator :: More flights under this callsign
Pilot: David J. (16724)
Aircraft: Unknown
(KODI)
More flights by this aircraft type
Origin: KYKM Yakima Air Term/Mcallister
United States
Destination: KGEG Spokane Intl
United States
More flights between these airports :: More routes between these airports
Route: +WENAS7 RUBEL GEG
File this flight plan on PilotEdge
Remarks:
Altitude:
(Current/Filed)
11,000ft
Speed:
(Current/Filed)
160kts
Departed: 29-May-18 03:53 PM
Arrived: 29-May-18 04:53 PM
Distance/Time
Traveled:
139nm/1:00
Distance/Time
To Go:
Arrived

Flight Plot

Page will automatically refresh every two minutes.

Flight plan parsing failed; only flown route is shown


Map Options




Map Legend


Flown Route
Filed Route
Departure Airport
Arrival Airport
Navaid (VOR, NDB)
Fix

Horizontal Profiles

Position Reports

Time Latitude Longitude Heading Altitude Ground
Speed
29-May-18 15:33 46.572196 -120.549677 272 1071ft 0kts
29-May-18 15:34 46.572196 -120.549677 272 1071ft 0kts
29-May-18 15:35 46.572196 -120.549677 272 1071ft 0kts
29-May-18 15:36 46.572196 -120.549677 272 1072ft 0kts
29-May-18 15:37 46.572196 -120.549677 272 1072ft 0kts
29-May-18 15:38 46.572196 -120.549677 272 1072ft 0kts
29-May-18 15:39 46.572196 -120.549677 272 1072ft 0kts
29-May-18 15:40 46.572196 -120.549677 272 1072ft 0kts
29-May-18 15:41 46.572196 -120.549677 272 1072ft 0kts
29-May-18 15:42 46.572196 -120.549677 272 1072ft 0kts
29-May-18 15:43 46.572196 -120.549677 272 1072ft 0kts
29-May-18 15:44 46.572196 -120.549677 272 1072ft 0kts
29-May-18 15:45 46.572196 -120.549677 272 1072ft 0kts
29-May-18 15:46 46.572196 -120.549677 272 1072ft 0kts
29-May-18 15:47 46.572180 -120.549755 224 1072ft 4kts
29-May-18 15:48 46.571691 -120.549907 190 1072ft 9kts
29-May-18 15:49 46.570005 -120.544651 111 1072ft 17kts
29-May-18 15:50 46.568330 -120.538004 108 1072ft 17kts
29-May-18 15:51 46.566670 -120.531606 145 1072ft 12kts
29-May-18 15:52 46.566407 -120.531512 179 1071ft 6kts
29-May-18 15:53 46.568454 -120.543109 296 1274ft 73kts
29-May-18 15:54 46.578280 -120.576610 283 2312ft 101kts
29-May-18 15:55 46.582923 -120.615834 283 3493ft 98kts
29-May-18 15:56 46.586139 -120.656052 295 4498ft 102kts
29-May-18 15:57 46.613051 -120.651750 15 5440ft 110kts
29-May-18 15:58 46.642096 -120.634402 14 6332ft 115kts
29-May-18 15:59 46.669586 -120.607897 31 7230ft 122kts
29-May-18 16:00 46.692628 -120.570759 47 8118ft 131kts
29-May-18 16:01 46.710198 -120.523113 64 9018ft 137kts
29-May-18 16:02 46.719308 -120.468979 82 9916ft 139kts
29-May-18 16:03 46.718665 -120.412853 100 10797ft 136kts
29-May-18 16:04 46.706845 -120.354490 118 11008ft 168kts
29-May-18 16:05 46.681466 -120.298099 138 10998ft 170kts
29-May-18 16:06 46.681862 -120.242611 29 11008ft 175kts
29-May-18 16:07 46.716470 -120.191002 46 10999ft 179kts
29-May-18 16:08 46.748526 -120.135309 46 11005ft 179kts
29-May-18 16:09 46.780384 -120.079682 46 11013ft 179kts
29-May-18 16:10 46.811825 -120.024673 46 11020ft 180kts
29-May-18 16:11 46.843781 -119.968650 46 11020ft 180kts
29-May-18 16:12 46.875945 -119.912176 47 11005ft 181kts
29-May-18 16:13 46.907724 -119.856242 47 10975ft 183kts
29-May-18 16:14 46.940088 -119.799159 47 10957ft 181kts
29-May-18 16:15 46.971748 -119.743189 48 10946ft 178kts
29-May-18 16:16 47.002644 -119.688456 48 10946ft 175kts
29-May-18 16:17 47.031793 -119.632647 66 10941ft 173kts
29-May-18 16:18 47.050445 -119.567818 67 10946ft 172kts
29-May-18 16:19 47.068446 -119.502845 67 10946ft 172kts
29-May-18 16:20 47.086338 -119.437818 67 10946ft 172kts
29-May-18 16:21 47.103983 -119.373475 67 10945ft 172kts
29-May-18 16:22 47.120460 -119.313249 68 10943ft 171kts
29-May-18 16:23 47.138220 -119.248138 68 10944ft 171kts
29-May-18 16:24 47.155829 -119.183405 68 10944ft 171kts
29-May-18 16:25 47.173491 -119.118299 68 10944ft 171kts
29-May-18 16:26 47.190814 -119.054268 68 10944ft 171kts
29-May-18 16:27 47.208408 -118.989069 68 10944ft 172kts
29-May-18 16:28 47.225954 -118.923863 68 10945ft 172kts
29-May-18 16:29 47.243581 -118.858161 68 10945ft 173kts
29-May-18 16:30 47.261261 -118.792090 68 10945ft 173kts
29-May-18 16:31 47.278850 -118.726168 68 10945ft 173kts
29-May-18 16:32 47.296492 -118.659850 68 10945ft 173kts
29-May-18 16:33 47.314036 -118.593734 68 10945ft 173kts
29-May-18 16:34 47.331462 -118.527855 68 10947ft 173kts
29-May-18 16:35 47.348945 -118.461593 68 10952ft 173kts
29-May-18 16:36 47.366332 -118.395492 68 10957ft 173kts
29-May-18 16:37 47.383478 -118.330133 69 10961ft 173kts
29-May-18 16:38 47.400840 -118.263748 69 10962ft 173kts
29-May-18 16:39 47.418172 -118.197301 68 10963ft 173kts
29-May-18 16:40 47.435422 -118.131046 68 11000ft 173kts
29-May-18 16:41 47.452650 -118.064610 68 10999ft 173kts
29-May-18 16:42 47.469899 -117.997905 68 11000ft 173kts
29-May-18 16:43 47.487225 -117.930732 69 10505ft 173kts
29-May-18 16:44 47.503762 -117.866472 69 9501ft 163kts
29-May-18 16:45 47.519702 -117.804786 66 8396ft 156kts
29-May-18 16:46 47.538174 -117.747840 60 6970ft 153kts
29-May-18 16:47 47.559303 -117.693294 56 5535ft 153kts
29-May-18 16:48 47.582603 -117.642260 51 4174ft 148kts
29-May-18 16:49 47.608433 -117.595775 49 3266ft 145kts
29-May-18 16:50 47.633415 -117.547990 52 3035ft 137kts
29-May-18 16:51 47.652030 -117.508471 70 2929ft 110kts
29-May-18 16:52 47.639570 -117.505649 225 2653ft 69kts
29-May-18 16:53 47.627980 -117.523139 220 2364ft 28kts
29-May-18 16:54 47.628035 -117.525674 314 2364ft 6kts
29-May-18 16:55 47.629102 -117.526998 11 2364ft 10kts

Navigation Log

Ident Type
Flight plan parsing failed, navigation log unavailable